sensor_id;sensor_type;location;lat;lon;timestamp;P1;durP1;ratioP1;P2;durP2;ratioP2
17369;SDS011;8802;52.402;4.920;2023-06-04T00:02:07;1.10;;;1.00;;
17369;SDS011;8802;52.402;4.920;2023-06-04T00:04:34;1.58;;;1.23;;
17369;SDS011;8802;52.402;4.920;2023-06-04T00:07:02;0.95;;;0.77;;
17369;SDS011;8802;52.402;4.920;2023-06-04T00:09:29;1.88;;;1.02;;
17369;SDS011;8802;52.402;4.920;2023-06-04T00:11:56;1.58;;;1.13;;
17369;SDS011;8802;52.402;4.920;2023-06-04T00:14:23;1.20;;;0.98;;
17369;SDS011;8802;52.402;4.920;2023-06-04T00:16:50;3.72;;;1.45;;
17369;SDS011;8802;52.402;4.920;2023-06-04T00:19:17;2.40;;;1.08;;
17369;SDS011;8802;52.402;4.920;2023-06-04T00:21:44;2.22;;;1.40;;
17369;SDS011;8802;52.402;4.920;2023-06-04T00:24:13;2.35;;;1.35;;
17369;SDS011;8802;52.402;4.920;2023-06-04T00:26:40;1.50;;;1.30;;
17369;SDS011;8802;52.402;4.920;2023-06-04T00:29:07;1.52;;;1.33;;
17369;SDS011;8802;52.402;4.920;2023-06-04T00:31:34;1.23;;;1.13;;
17369;SDS011;8802;52.402;4.920;2023-06-04T00:34:02;2.13;;;1.25;;
17369;SDS011;8802;52.402;4.920;2023-06-04T00:36:30;1.65;;;1.40;;
17369;SDS011;8802;52.402;4.920;2023-06-04T00:38:57;2.40;;;1.60;;
17369;SDS011;8802;52.402;4.920;2023-06-04T00:41:25;2.60;;;1.50;;
17369;SDS011;8802;52.402;4.920;2023-06-04T00:43:52;2.30;;;1.65;;
17369;SDS011;8802;52.402;4.920;2023-06-04T00:46:22;1.95;;;1.27;;
17369;SDS011;8802;52.402;4.920;2023-06-04T00:48:50;1.70;;;1.60;;
17369;SDS011;8802;52.402;4.920;2023-06-04T00:51:17;3.78;;;1.50;;
17369;SDS011;8802;52.402;4.920;2023-06-04T00:53:45;3.67;;;1.50;;
17369;SDS011;8802;52.402;4.920;2023-06-04T00:56:12;2.08;;;1.83;;
17369;SDS011;8802;52.402;4.920;2023-06-04T00:58:41;2.40;;;2.20;;
17369;SDS011;8802;52.402;4.920;2023-06-04T01:01:10;4.03;;;2.40;;
17369;SDS011;8802;52.402;4.920;2023-06-04T01:03:44;3.70;;;2.45;;
17369;SDS011;8802;52.402;4.920;2023-06-04T01:06:17;3.97;;;2.15;;
17369;SDS011;8802;52.402;4.920;2023-06-04T01:08:49;3.03;;;1.83;;
17369;SDS011;8802;52.402;4.920;2023-06-04T01:11:19;2.10;;;1.90;;
17369;SDS011;8802;52.402;4.920;2023-06-04T01:13:58;2.70;;;2.08;;
17369;SDS011;8802;52.402;4.920;2023-06-04T01:16:25;2.20;;;1.98;;
17369;SDS011;8802;52.402;4.920;2023-06-04T01:18:55;2.60;;;1.75;;
17369;SDS011;8802;52.402;4.920;2023-06-04T01:21:24;2.58;;;1.80;;
17369;SDS011;8802;52.402;4.920;2023-06-04T01:23:55;1.60;;;1.50;;
17369;SDS011;8802;52.402;4.920;2023-06-04T01:26:27;3.40;;;1.90;;
17369;SDS011;8802;52.402;4.920;2023-06-04T01:28:54;1.83;;;1.42;;
17369;SDS011;8802;52.402;4.920;2023-06-04T01:31:23;1.50;;;1.38;;
17369;SDS011;8802;52.402;4.920;2023-06-04T01:33:51;2.75;;;1.67;;
17369;SDS011;8802;52.402;4.920;2023-06-04T01:36:19;1.95;;;1.30;;
17369;SDS011;8802;52.402;4.920;2023-06-04T01:38:46;1.90;;;1.60;;
17369;SDS011;8802;52.402;4.920;2023-06-04T01:41:12;5.85;;;1.80;;
17369;SDS011;8802;52.402;4.920;2023-06-04T01:43:39;1.77;;;1.65;;
17369;SDS011;8802;52.402;4.920;2023-06-04T01:46:06;2.30;;;1.70;;
17369;SDS011;8802;52.402;4.920;2023-06-04T01:48:35;2.03;;;1.83;;
17369;SDS011;8802;52.402;4.920;2023-06-04T01:51:02;3.22;;;1.90;;
17369;SDS011;8802;52.402;4.920;2023-06-04T01:53:30;2.60;;;1.90;;
17369;SDS011;8802;52.402;4.920;2023-06-04T01:55:57;2.90;;;1.83;;
17369;SDS011;8802;52.402;4.920;2023-06-04T01:58:24;2.35;;;1.67;;
17369;SDS011;8802;52.402;4.920;2023-06-04T02:00:54;3.92;;;1.70;;
17369;SDS011;8802;52.402;4.920;2023-06-04T02:03:21;3.55;;;1.60;;
17369;SDS011;8802;52.402;4.920;2023-06-04T02:05:49;2.33;;;1.27;;
17369;SDS011;8802;52.402;4.920;2023-06-04T02:08:16;1.45;;;1.15;;
17369;SDS011;8802;52.402;4.920;2023-06-04T02:10:44;1.60;;;1.23;;
17369;SDS011;8802;52.402;4.920;2023-06-04T02:13:12;4.00;;;1.60;;
17369;SDS011;8802;52.402;4.920;2023-06-04T02:15:40;2.85;;;1.42;;
17369;SDS011;8802;52.402;4.920;2023-06-04T02:18:13;2.50;;;1.55;;
17369;SDS011;8802;52.402;4.920;2023-06-04T02:20:42;1.98;;;1.45;;
17369;SDS011;8802;52.402;4.920;2023-06-04T02:23:11;2.05;;;1.48;;
17369;SDS011;8802;52.402;4.920;2023-06-04T02:25:38;2.95;;;1.70;;
17369;SDS011;8802;52.402;4.920;2023-06-04T02:28:05;4.25;;;1.58;;
17369;SDS011;8802;52.402;4.920;2023-06-04T02:30:32;1.50;;;1.40;;
17369;SDS011;8802;52.402;4.920;2023-06-04T02:32:59;3.58;;;1.50;;
17369;SDS011;8802;52.402;4.920;2023-06-04T02:35:27;2.50;;;1.50;;
17369;SDS011;8802;52.402;4.920;2023-06-04T02:37:54;2.20;;;1.40;;
17369;SDS011;8802;52.402;4.920;2023-06-04T02:40:24;2.05;;;1.70;;
17369;SDS011;8802;52.402;4.920;2023-06-04T02:42:51;2.05;;;1.85;;
17369;SDS011;8802;52.402;4.920;2023-06-04T02:45:18;3.15;;;1.50;;
17369;SDS011;8802;52.402;4.920;2023-06-04T02:47:45;1.90;;;1.50;;
17369;SDS011;8802;52.402;4.920;2023-06-04T02:50:13;2.72;;;1.60;;
17369;SDS011;8802;52.402;4.920;2023-06-04T02:52:40;3.75;;;2.13;;
17369;SDS011;8802;52.402;4.920;2023-06-04T02:55:08;2.00;;;1.52;;
17369;SDS011;8802;52.402;4.920;2023-06-04T02:57:38;2.92;;;1.60;;
17369;SDS011;8802;52.402;4.920;2023-06-04T03:00:07;2.00;;;1.52;;
17369;SDS011;8802;52.402;4.920;2023-06-04T03:02:38;3.63;;;1.50;;
17369;SDS011;8802;52.402;4.920;2023-06-04T03:05:07;4.15;;;1.98;;
17369;SDS011;8802;52.402;4.920;2023-06-04T03:07:35;3.13;;;2.30;;
17369;SDS011;8802;52.402;4.920;2023-06-04T03:10:03;3.78;;;1.85;;
17369;SDS011;8802;52.402;4.920;2023-06-04T03:12:30;2.47;;;2.08;;
17369;SDS011;8802;52.402;4.920;2023-06-04T03:14:58;3.30;;;2.15;;
17369;SDS011;8802;52.402;4.920;2023-06-04T03:17:25;3.85;;;2.10;;
17369;SDS011;8802;52.402;4.920;2023-06-04T03:19:53;4.07;;;2.35;;
17369;SDS011;8802;52.402;4.920;2023-06-04T03:22:21;3.83;;;1.98;;
17369;SDS011;8802;52.402;4.920;2023-06-04T03:24:48;3.08;;;2.22;;
17369;SDS011;8802;52.402;4.920;2023-06-04T03:27:17;4.05;;;2.38;;
17369;SDS011;8802;52.402;4.920;2023-06-04T03:29:44;3.08;;;2.20;;
17369;SDS011;8802;52.402;4.920;2023-06-04T03:32:12;3.65;;;2.53;;
17369;SDS011;8802;52.402;4.920;2023-06-04T03:34:41;3.35;;;2.65;;
17369;SDS011;8802;52.402;4.920;2023-06-04T03:37:08;3.22;;;2.33;;
17369;SDS011;8802;52.402;4.920;2023-06-04T03:39:35;2.75;;;2.55;;
17369;SDS011;8802;52.402;4.920;2023-06-04T03:42:02;3.50;;;2.63;;
17369;SDS011;8802;52.402;4.920;2023-06-04T03:44:29;5.45;;;2.53;;
17369;SDS011;8802;52.402;4.920;2023-06-04T03:46:56;3.45;;;2.30;;
17369;SDS011;8802;52.402;4.920;2023-06-04T03:49:24;2.65;;;2.10;;
17369;SDS011;8802;52.402;4.920;2023-06-04T03:51:51;2.63;;;2.03;;
17369;SDS011;8802;52.402;4.920;2023-06-04T03:54:18;3.00;;;2.33;;
17369;SDS011;8802;52.402;4.920;2023-06-04T03:56:45;5.57;;;2.88;;
17369;SDS011;8802;52.402;4.920;2023-06-04T03:59:13;2.83;;;2.10;;
17369;SDS011;8802;52.402;4.920;2023-06-04T04:01:40;3.35;;;2.50;;
17369;SDS011;8802;52.402;4.920;2023-06-04T04:04:07;4.00;;;2.50;;
17369;SDS011;8802;52.402;4.920;2023-06-04T04:06:36;3.85;;;2.38;;
17369;SDS011;8802;52.402;4.920;2023-06-04T04:09:03;4.78;;;2.15;;
17369;SDS011;8802;52.402;4.920;2023-06-04T04:11:31;7.60;;;2.70;;
17369;SDS011;8802;52.402;4.920;2023-06-04T04:13:58;6.35;;;2.40;;
17369;SDS011;8802;52.402;4.920;2023-06-04T04:16:25;3.70;;;2.20;;
17369;SDS011;8802;52.402;4.920;2023-06-04T04:18:52;6.60;;;2.28;;
17369;SDS011;8802;52.402;4.920;2023-06-04T04:21:19;2.22;;;1.98;;
17369;SDS011;8802;52.402;4.920;2023-06-04T04:23:48;4.97;;;2.78;;
17369;SDS011;8802;52.402;4.920;2023-06-04T04:26:16;4.15;;;2.35;;
17369;SDS011;8802;52.402;4.920;2023-06-04T04:28:43;4.50;;;2.95;;
17369;SDS011;8802;52.402;4.920;2023-06-04T04:31:10;2.97;;;1.73;;
17369;SDS011;8802;52.402;4.920;2023-06-04T04:33:37;2.35;;;1.85;;
17369;SDS011;8802;52.402;4.920;2023-06-04T04:36:05;4.40;;;2.50;;
17369;SDS011;8802;52.402;4.920;2023-06-04T04:38:37;4.43;;;1.88;;
17369;SDS011;8802;52.402;4.920;2023-06-04T04:41:06;5.82;;;2.20;;
17369;SDS011;8802;52.402;4.920;2023-06-04T04:43:34;3.72;;;2.10;;
17369;SDS011;8802;52.402;4.920;2023-06-04T04:46:02;4.22;;;2.20;;
17369;SDS011;8802;52.402;4.920;2023-06-04T04:48:30;3.55;;;2.50;;
17369;SDS011;8802;52.402;4.920;2023-06-04T04:50:57;5.82;;;2.45;;
17369;SDS011;8802;52.402;4.920;2023-06-04T04:53:25;5.18;;;2.47;;
17369;SDS011;8802;52.402;4.920;2023-06-04T04:55:52;4.03;;;2.60;;
17369;SDS011;8802;52.402;4.920;2023-06-04T04:58:21;2.88;;;2.17;;
17369;SDS011;8802;52.402;4.920;2023-06-04T05:00:47;3.13;;;2.50;;
17369;SDS011;8802;52.402;4.920;2023-06-04T05:03:14;5.28;;;1.98;;
17369;SDS011;8802;52.402;4.920;2023-06-04T05:05:41;2.88;;;2.03;;
17369;SDS011;8802;52.402;4.920;2023-06-04T05:08:08;3.90;;;2.38;;
17369;SDS011;8802;52.402;4.920;2023-06-04T05:10:35;4.35;;;2.17;;
17369;SDS011;8802;52.402;4.920;2023-06-04T05:13:02;3.95;;;1.80;;
17369;SDS011;8802;52.402;4.920;2023-06-04T05:15:32;5.68;;;2.47;;
17369;SDS011;8802;52.402;4.920;2023-06-04T05:17:59;3.47;;;1.80;;
17369;SDS011;8802;52.402;4.920;2023-06-04T05:20:28;4.65;;;1.70;;
17369;SDS011;8802;52.402;4.920;2023-06-04T05:22:55;4.72;;;2.00;;
17369;SDS011;8802;52.402;4.920;2023-06-04T05:25:22;4.57;;;2.08;;
17369;SDS011;8802;52.402;4.920;2023-06-04T05:27:50;4.63;;;2.13;;
17369;SDS011;8802;52.402;4.920;2023-06-04T05:30:17;3.78;;;2.33;;
17369;SDS011;8802;52.402;4.920;2023-06-04T05:32:45;5.65;;;2.13;;
17369;SDS011;8802;52.402;4.920;2023-06-04T05:35:12;2.88;;;1.92;;
17369;SDS011;8802;52.402;4.920;2023-06-04T05:37:39;6.35;;;2.75;;
17369;SDS011;8802;52.402;4.920;2023-06-04T05:40:07;6.75;;;2.60;;
17369;SDS011;8802;52.402;4.920;2023-06-04T05:42:35;3.72;;;2.20;;
17369;SDS011;8802;52.402;4.920;2023-06-04T05:45:03;3.00;;;2.28;;
17369;SDS011;8802;52.402;4.920;2023-06-04T05:47:30;3.58;;;1.80;;
17369;SDS011;8802;52.402;4.920;2023-06-04T05:49:58;2.63;;;1.60;;
17369;SDS011;8802;52.402;4.920;2023-06-04T05:52:26;3.67;;;2.30;;
17369;SDS011;8802;52.402;4.920;2023-06-04T05:54:53;3.33;;;1.80;;
17369;SDS011;8802;52.402;4.920;2023-06-04T05:57:20;5.68;;;1.80;;
17369;SDS011;8802;52.402;4.920;2023-06-04T05:59:47;4.75;;;1.92;;
17369;SDS011;8802;52.402;4.920;2023-06-04T06:02:14;4.00;;;2.00;;
17369;SDS011;8802;52.402;4.920;2023-06-04T06:04:41;3.25;;;1.75;;
17369;SDS011;8802;52.402;4.920;2023-06-04T06:07:09;5.68;;;1.95;;
17369;SDS011;8802;52.402;4.920;2023-06-04T06:09:36;4.20;;;2.17;;
17369;SDS011;8802;52.402;4.920;2023-06-04T06:12:03;7.82;;;3.08;;
17369;SDS011;8802;52.402;4.920;2023-06-04T06:14:30;5.57;;;2.78;;
17369;SDS011;8802;52.402;4.920;2023-06-04T06:16:57;6.22;;;2.92;;
17369;SDS011;8802;52.402;4.920;2023-06-04T06:19:25;5.15;;;3.22;;
17369;SDS011;8802;52.402;4.920;2023-06-04T06:21:52;4.65;;;2.55;;
17369;SDS011;8802;52.402;4.920;2023-06-04T06:24:20;5.72;;;2.35;;
17369;SDS011;8802;52.402;4.920;2023-06-04T06:26:47;7.10;;;3.22;;
17369;SDS011;8802;52.402;4.920;2023-06-04T06:29:14;4.35;;;2.17;;
17369;SDS011;8802;52.402;4.920;2023-06-04T06:31:41;5.30;;;2.40;;
17369;SDS011;8802;52.402;4.920;2023-06-04T06:34:08;4.95;;;2.50;;
17369;SDS011;8802;52.402;4.920;2023-06-04T06:36:35;3.40;;;2.05;;
17369;SDS011;8802;52.402;4.920;2023-06-04T06:39:02;7.57;;;2.60;;
17369;SDS011;8802;52.402;4.920;2023-06-04T06:41:30;4.88;;;2.65;;
17369;SDS011;8802;52.402;4.920;2023-06-04T06:43:57;5.88;;;2.25;;
17369;SDS011;8802;52.402;4.920;2023-06-04T06:46:24;4.28;;;2.20;;
17369;SDS011;8802;52.402;4.920;2023-06-04T06:48:51;5.88;;;3.13;;
17369;SDS011;8802;52.402;4.920;2023-06-04T06:51:18;5.68;;;2.10;;
17369;SDS011;8802;52.402;4.920;2023-06-04T06:53:45;6.57;;;2.40;;
17369;SDS011;8802;52.402;4.920;2023-06-04T06:56:13;3.53;;;2.35;;
17369;SDS011;8802;52.402;4.920;2023-06-04T06:58:41;7.05;;;2.67;;
17369;SDS011;8802;52.402;4.920;2023-06-04T07:01:08;6.60;;;2.20;;
17369;SDS011;8802;52.402;4.920;2023-06-04T07:03:35;5.78;;;2.40;;
17369;SDS011;8802;52.402;4.920;2023-06-04T07:06:03;7.32;;;2.50;;
17369;SDS011;8802;52.402;4.920;2023-06-04T07:08:30;8.82;;;2.58;;
17369;SDS011;8802;52.402;4.920;2023-06-04T07:10:57;5.05;;;2.35;;
17369;SDS011;8802;52.402;4.920;2023-06-04T07:13:24;6.93;;;2.50;;
17369;SDS011;8802;52.402;4.920;2023-06-04T07:15:52;5.72;;;2.20;;
17369;SDS011;8802;52.402;4.920;2023-06-04T07:18:19;6.25;;;2.38;;
17369;SDS011;8802;52.402;4.920;2023-06-04T07:20:46;5.03;;;2.00;;
17369;SDS011;8802;52.402;4.920;2023-06-04T07:23:14;5.35;;;2.10;;
17369;SDS011;8802;52.402;4.920;2023-06-04T07:25:41;5.55;;;2.60;;
17369;SDS011;8802;52.402;4.920;2023-06-04T07:28:08;5.63;;;2.33;;
17369;SDS011;8802;52.402;4.920;2023-06-04T07:30:34;9.35;;;2.03;;
17369;SDS011;8802;52.402;4.920;2023-06-04T07:33:03;3.80;;;1.92;;
17369;SDS011;8802;52.402;4.920;2023-06-04T07:35:31;4.07;;;1.80;;
17369;SDS011;8802;52.402;4.920;2023-06-04T07:37:58;3.63;;;1.90;;
17369;SDS011;8802;52.402;4.920;2023-06-04T07:40:25;4.47;;;2.03;;
17369;SDS011;8802;52.402;4.920;2023-06-04T07:42:52;5.40;;;1.98;;
17369;SDS011;8802;52.402;4.920;2023-06-04T07:45:18;3.08;;;1.60;;
17369;SDS011;8802;52.402;4.920;2023-06-04T07:47:45;4.97;;;1.98;;
17369;SDS011;8802;52.402;4.920;2023-06-04T07:50:14;4.72;;;1.92;;
17369;SDS011;8802;52.402;4.920;2023-06-04T07:52:41;5.75;;;1.95;;
17369;SDS011;8802;52.402;4.920;2023-06-04T07:55:08;3.25;;;1.65;;
17369;SDS011;8802;52.402;4.920;2023-06-04T07:57:35;3.45;;;1.60;;
17369;SDS011;8802;52.402;4.920;2023-06-04T08:00:02;3.05;;;1.27;;
17369;SDS011;8802;52.402;4.920;2023-06-04T08:02:30;3.78;;;1.67;;
17369;SDS011;8802;52.402;4.920;2023-06-04T08:04:57;4.13;;;1.50;;
17369;SDS011;8802;52.402;4.920;2023-06-04T08:07:25;3.33;;;1.63;;
17369;SDS011;8802;52.402;4.920;2023-06-04T08:09:52;2.97;;;1.40;;
17369;SDS011;8802;52.402;4.920;2023-06-04T08:12:20;3.22;;;1.67;;
17369;SDS011;8802;52.402;4.920;2023-06-04T08:14:47;2.80;;;1.33;;
17369;SDS011;8802;52.402;4.920;2023-06-04T08:17:15;2.75;;;1.42;;
17369;SDS011;8802;52.402;4.920;2023-06-04T08:19:42;4.30;;;1.83;;
17369;SDS011;8802;52.402;4.920;2023-06-04T08:22:09;3.88;;;2.05;;
17369;SDS011;8802;52.402;4.920;2023-06-04T08:24:37;3.47;;;1.65;;
17369;SDS011;8802;52.402;4.920;2023-06-04T08:27:05;2.75;;;1.40;;
17369;SDS011;8802;52.402;4.920;2023-06-04T08:29:33;4.07;;;1.63;;
17369;SDS011;8802;52.402;4.920;2023-06-04T08:32:00;2.67;;;2.08;;
17369;SDS011;8802;52.402;4.920;2023-06-04T08:34:27;4.55;;;1.75;;
17369;SDS011;8802;52.402;4.920;2023-06-04T08:36:54;2.28;;;1.45;;
17369;SDS011;8802;52.402;4.920;2023-06-04T08:39:22;4.72;;;1.50;;
17369;SDS011;8802;52.402;4.920;2023-06-04T08:41:51;2.90;;;1.70;;
17369;SDS011;8802;52.402;4.920;2023-06-04T08:44:20;1.75;;;1.27;;
17369;SDS011;8802;52.402;4.920;2023-06-04T08:46:50;4.03;;;1.40;;
17369;SDS011;8802;52.402;4.920;2023-06-04T08:49:19;3.47;;;1.40;;
17369;SDS011;8802;52.402;4.920;2023-06-04T08:51:47;4.65;;;1.80;;
17369;SDS011;8802;52.402;4.920;2023-06-04T08:54:16;3.42;;;1.55;;
17369;SDS011;8802;52.402;4.920;2023-06-04T08:56:42;2.88;;;1.67;;
17369;SDS011;8802;52.402;4.920;2023-06-04T08:59:11;2.53;;;1.67;;
17369;SDS011;8802;52.402;4.920;2023-06-04T09:01:39;3.65;;;1.80;;
17369;SDS011;8802;52.402;4.920;2023-06-04T09:04:10;3.47;;;1.73;;
17369;SDS011;8802;52.402;4.920;2023-06-04T09:06:38;3.83;;;1.45;;
17369;SDS011;8802;52.402;4.920;2023-06-04T09:09:08;4.22;;;1.55;;
17369;SDS011;8802;52.402;4.920;2023-06-04T09:11:37;2.08;;;1.60;;
17369;SDS011;8802;52.402;4.920;2023-06-04T09:14:07;4.50;;;1.80;;
17369;SDS011;8802;52.402;4.920;2023-06-04T09:16:45;3.97;;;2.15;;
17369;SDS011;8802;52.402;4.920;2023-06-04T09:19:12;5.20;;;1.70;;
17369;SDS011;8802;52.402;4.920;2023-06-04T09:21:46;3.15;;;1.70;;
17369;SDS011;8802;52.402;4.920;2023-06-04T09:24:17;4.60;;;1.60;;
17369;SDS011;8802;52.402;4.920;2023-06-04T09:26:44;3.90;;;1.77;;
17369;SDS011;8802;52.402;4.920;2023-06-04T09:29:11;2.50;;;1.40;;
17369;SDS011;8802;52.402;4.920;2023-06-04T09:31:38;1.98;;;1.20;;
17369;SDS011;8802;52.402;4.920;2023-06-04T09:34:06;2.25;;;1.40;;
17369;SDS011;8802;52.402;4.920;2023-06-04T09:36:33;4.68;;;1.73;;
17369;SDS011;8802;52.402;4.920;2023-06-04T09:39:01;2.13;;;1.20;;
17369;SDS011;8802;52.402;4.920;2023-06-04T09:41:29;1.73;;;1.27;;
17369;SDS011;8802;52.402;4.920;2023-06-04T09:44:00;3.03;;;1.20;;
17369;SDS011;8802;52.402;4.920;2023-06-04T09:46:28;2.05;;;1.45;;
17369;SDS011;8802;52.402;4.920;2023-06-04T09:49:00;4.07;;;1.40;;
17369;SDS011;8802;52.402;4.920;2023-06-04T09:51:29;3.97;;;1.30;;
17369;SDS011;8802;52.402;4.920;2023-06-04T09:53:57;3.83;;;1.30;;
17369;SDS011;8802;52.402;4.920;2023-06-04T09:56:25;2.53;;;1.17;;
17369;SDS011;8802;52.402;4.920;2023-06-04T09:58:54;3.05;;;1.33;;
17369;SDS011;8802;52.402;4.920;2023-06-04T10:01:22;1.95;;;1.30;;
17369;SDS011;8802;52.402;4.920;2023-06-04T10:03:52;2.15;;;1.00;;
17369;SDS011;8802;52.402;4.920;2023-06-04T10:06:21;2.67;;;1.00;;
17369;SDS011;8802;52.402;4.920;2023-06-04T10:08:50;4.10;;;1.17;;
17369;SDS011;8802;52.402;4.920;2023-06-04T10:11:21;3.67;;;1.30;;
17369;SDS011;8802;52.402;4.920;2023-06-04T10:13:53;2.22;;;1.20;;
17369;SDS011;8802;52.402;4.920;2023-06-04T10:16:21;2.45;;;1.10;;
17369;SDS011;8802;52.402;4.920;2023-06-04T10:18:51;2.40;;;1.30;;
17369;SDS011;8802;52.402;4.920;2023-06-04T10:21:19;3.38;;;1.10;;
17369;SDS011;8802;52.402;4.920;2023-06-04T10:23:47;1.85;;;1.23;;
17369;SDS011;8802;52.402;4.920;2023-06-04T10:26:16;3.22;;;1.63;;
17369;SDS011;8802;52.402;4.920;2023-06-04T10:28:43;2.65;;;1.20;;
17369;SDS011;8802;52.402;4.920;2023-06-04T10:31:11;3.15;;;1.40;;
17369;SDS011;8802;52.402;4.920;2023-06-04T10:33:38;2.22;;;1.60;;
17369;SDS011;8802;52.402;4.920;2023-06-04T10:36:18;2.95;;;1.35;;
17369;SDS011;8802;52.402;4.920;2023-06-04T10:38:45;3.45;;;1.40;;
17369;SDS011;8802;52.402;4.920;2023-06-04T10:41:13;3.42;;;1.40;;
17369;SDS011;8802;52.402;4.920;2023-06-04T10:43:42;2.10;;;1.27;;
17369;SDS011;8802;52.402;4.920;2023-06-04T10:46:13;4.03;;;1.52;;
17369;SDS011;8802;52.402;4.920;2023-06-04T10:48:47;2.55;;;1.45;;
17369;SDS011;8802;52.402;4.920;2023-06-04T10:51:15;3.05;;;1.67;;
17369;SDS011;8802;52.402;4.920;2023-06-04T10:53:42;4.03;;;1.80;;
17369;SDS011;8802;52.402;4.920;2023-06-04T10:56:10;3.28;;;1.70;;
17369;SDS011;8802;52.402;4.920;2023-06-04T10:58:37;4.10;;;1.73;;
17369;SDS011;8802;52.402;4.920;2023-06-04T11:01:05;4.00;;;1.52;;
17369;SDS011;8802;52.402;4.920;2023-06-04T11:03:35;5.40;;;1.70;;
17369;SDS011;8802;52.402;4.920;2023-06-04T11:06:03;4.22;;;1.60;;
17369;SDS011;8802;52.402;4.920;2023-06-04T11:08:41;3.30;;;1.52;;
17369;SDS011;8802;52.402;4.920;2023-06-04T11:11:12;3.65;;;2.20;;
17369;SDS011;8802;52.402;4.920;2023-06-04T11:13:39;4.00;;;1.92;;
17369;SDS011;8802;52.402;4.920;2023-06-04T11:16:17;4.00;;;1.67;;
17369;SDS011;8802;52.402;4.920;2023-06-04T11:18:53;2.33;;;1.27;;
17369;SDS011;8802;52.402;4.920;2023-06-04T11:21:21;2.38;;;1.40;;
17369;SDS011;8802;52.402;4.920;2023-06-04T11:23:48;5.82;;;1.80;;
17369;SDS011;8802;52.402;4.920;2023-06-04T11:26:15;5.78;;;1.50;;
17369;SDS011;8802;52.402;4.920;2023-06-04T11:28:42;2.70;;;1.60;;
17369;SDS011;8802;52.402;4.920;2023-06-04T11:31:10;4.57;;;1.48;;
17369;SDS011;8802;52.402;4.920;2023-06-04T11:33:45;3.47;;;1.70;;
17369;SDS011;8802;52.402;4.920;2023-06-04T11:36:21;4.20;;;1.73;;
17369;SDS011;8802;52.402;4.920;2023-06-04T11:38:53;2.58;;;1.45;;
17369;SDS011;8802;52.402;4.920;2023-06-04T11:41:21;3.20;;;1.80;;
17369;SDS011;8802;52.402;4.920;2023-06-04T11:43:48;3.10;;;1.58;;
17369;SDS011;8802;52.402;4.920;2023-06-04T11:46:15;2.40;;;1.48;;
17369;SDS011;8802;52.402;4.920;2023-06-04T11:48:42;3.45;;;1.80;;
17369;SDS011;8802;52.402;4.920;2023-06-04T11:51:11;3.25;;;1.40;;
17369;SDS011;8802;52.402;4.920;2023-06-04T11:53:39;2.47;;;1.80;;
17369;SDS011;8802;52.402;4.920;2023-06-04T11:56:06;1.63;;;1.40;;
17369;SDS011;8802;52.402;4.920;2023-06-04T11:58:33;2.85;;;1.50;;
17369;SDS011;8802;52.402;4.920;2023-06-04T12:01:01;3.38;;;1.55;;
17369;SDS011;8802;52.402;4.920;2023-06-04T12:03:34;4.13;;;1.80;;
17369;SDS011;8802;52.402;4.920;2023-06-04T12:06:11;2.05;;;1.50;;
17369;SDS011;8802;52.402;4.920;2023-06-04T12:08:48;2.92;;;1.70;;
17369;SDS011;8802;52.402;4.920;2023-06-04T12:11:25;3.35;;;1.75;;
17369;SDS011;8802;52.402;4.920;2023-06-04T12:13:54;3.10;;;1.52;;
17369;SDS011;8802;52.402;4.920;2023-06-04T12:16:22;2.20;;;1.63;;
17369;SDS011;8802;52.402;4.920;2023-06-04T12:18:49;2.35;;;1.70;;
17369;SDS011;8802;52.402;4.920;2023-06-04T12:21:22;2.70;;;1.35;;
17369;SDS011;8802;52.402;4.920;2023-06-04T12:24:04;4.80;;;1.60;;
17369;SDS011;8802;52.402;4.920;2023-06-04T12:26:32;3.40;;;1.60;;
17369;SDS011;8802;52.402;4.920;2023-06-04T12:29:06;3.78;;;1.60;;
17369;SDS011;8802;52.402;4.920;2023-06-04T12:31:35;2.88;;;1.67;;
17369;SDS011;8802;52.402;4.920;2023-06-04T12:34:02;1.60;;;1.50;;
17369;SDS011;8802;52.402;4.920;2023-06-04T12:36:30;2.30;;;1.23;;
17369;SDS011;8802;52.402;4.920;2023-06-04T12:38:59;4.32;;;1.83;;
17369;SDS011;8802;52.402;4.920;2023-06-04T12:41:27;3.65;;;1.67;;
17369;SDS011;8802;52.402;4.920;2023-06-04T12:43:55;3.45;;;1.38;;
17369;SDS011;8802;52.402;4.920;2023-06-04T12:46:22;3.70;;;1.40;;
17369;SDS011;8802;52.402;4.920;2023-06-04T12:48:50;3.45;;;1.70;;
17369;SDS011;8802;52.402;4.920;2023-06-04T12:51:17;2.33;;;1.40;;
17369;SDS011;8802;52.402;4.920;2023-06-04T12:53:47;3.25;;;1.50;;
17369;SDS011;8802;52.402;4.920;2023-06-04T12:56:14;2.90;;;1.42;;
17369;SDS011;8802;52.402;4.920;2023-06-04T12:58:41;2.97;;;1.38;;
17369;SDS011;8802;52.402;4.920;2023-06-04T13:01:08;2.70;;;1.50;;
17369;SDS011;8802;52.402;4.920;2023-06-04T13:03:36;2.72;;;1.67;;
17369;SDS011;8802;52.402;4.920;2023-06-04T13:06:03;4.03;;;1.63;;
17369;SDS011;8802;52.402;4.920;2023-06-04T13:08:31;4.32;;;1.88;;
17369;SDS011;8802;52.402;4.920;2023-06-04T13:10:59;2.75;;;1.73;;
17369;SDS011;8802;52.402;4.920;2023-06-04T13:13:27;3.65;;;1.85;;
17369;SDS011;8802;52.402;4.920;2023-06-04T13:15:55;2.67;;;1.33;;
17369;SDS011;8802;52.402;4.920;2023-06-04T13:18:22;5.35;;;1.60;;
17369;SDS011;8802;52.402;4.920;2023-06-04T13:20:49;3.25;;;1.40;;
17369;SDS011;8802;52.402;4.920;2023-06-04T13:23:16;3.47;;;1.27;;
17369;SDS011;8802;52.402;4.920;2023-06-04T13:25:43;3.20;;;1.70;;
17369;SDS011;8802;52.402;4.920;2023-06-04T13:28:11;2.88;;;1.48;;
17369;SDS011;8802;52.402;4.920;2023-06-04T13:30:38;3.95;;;1.38;;
17369;SDS011;8802;52.402;4.920;2023-06-04T13:33:05;3.53;;;1.67;;
17369;SDS011;8802;52.402;4.920;2023-06-04T13:35:32;3.33;;;1.48;;
17369;SDS011;8802;52.402;4.920;2023-06-04T13:37:59;1.60;;;1.27;;
17369;SDS011;8802;52.402;4.920;2023-06-04T13:40:29;2.88;;;1.60;;
17369;SDS011;8802;52.402;4.920;2023-06-04T13:42:55;2.88;;;1.65;;
17369;SDS011;8802;52.402;4.920;2023-06-04T13:45:24;2.53;;;1.50;;
17369;SDS011;8802;52.402;4.920;2023-06-04T13:47:50;2.97;;;1.55;;
17369;SDS011;8802;52.402;4.920;2023-06-04T13:50:17;2.92;;;1.88;;
17369;SDS011;8802;52.402;4.920;2023-06-04T13:52:44;2.40;;;1.50;;
17369;SDS011;8802;52.402;4.920;2023-06-04T13:55:12;2.30;;;1.17;;
17369;SDS011;8802;52.402;4.920;2023-06-04T13:57:39;2.55;;;1.48;;
17369;SDS011;8802;52.402;4.920;2023-06-04T14:00:06;4.07;;;1.38;;
17369;SDS011;8802;52.402;4.920;2023-06-04T14:02:36;2.65;;;1.30;;
17369;SDS011;8802;52.402;4.920;2023-06-04T14:05:04;3.33;;;1.65;;
17369;SDS011;8802;52.402;4.920;2023-06-04T14:07:31;2.42;;;1.45;;
17369;SDS011;8802;52.402;4.920;2023-06-04T14:09:58;3.40;;;1.50;;
17369;SDS011;8802;52.402;4.920;2023-06-04T14:12:25;3.83;;;1.55;;
17369;SDS011;8802;52.402;4.920;2023-06-04T14:14:52;4.35;;;1.67;;
17369;SDS011;8802;52.402;4.920;2023-06-04T14:17:19;3.67;;;2.03;;
17369;SDS011;8802;52.402;4.920;2023-06-04T14:19:47;2.28;;;1.30;;
17369;SDS011;8802;52.402;4.920;2023-06-04T14:22:14;5.13;;;1.48;;
17369;SDS011;8802;52.402;4.920;2023-06-04T14:24:41;3.42;;;1.58;;
17369;SDS011;8802;52.402;4.920;2023-06-04T14:27:08;3.45;;;1.60;;
17369;SDS011;8802;52.402;4.920;2023-06-04T14:29:35;3.72;;;1.40;;
17369;SDS011;8802;52.402;4.920;2023-06-04T14:32:03;3.20;;;1.50;;
17369;SDS011;8802;52.402;4.920;2023-06-04T14:34:30;6.03;;;1.77;;
17369;SDS011;8802;52.402;4.920;2023-06-04T14:36:59;2.75;;;1.40;;
17369;SDS011;8802;52.402;4.920;2023-06-04T14:39:26;2.75;;;1.55;;
17369;SDS011;8802;52.402;4.920;2023-06-04T14:41:53;3.97;;;1.60;;
17369;SDS011;8802;52.402;4.920;2023-06-04T14:44:20;5.20;;;1.60;;
17369;SDS011;8802;52.402;4.920;2023-06-04T14:46:48;4.63;;;1.90;;
17369;SDS011;8802;52.402;4.920;2023-06-04T14:49:17;4.38;;;1.48;;
17369;SDS011;8802;52.402;4.920;2023-06-04T14:51:44;4.15;;;1.70;;
17369;SDS011;8802;52.402;4.920;2023-06-04T14:54:13;2.75;;;1.63;;
17369;SDS011;8802;52.402;4.920;2023-06-04T14:56:39;2.75;;;1.65;;
17369;SDS011;8802;52.402;4.920;2023-06-04T14:59:09;2.50;;;1.77;;
17369;SDS011;8802;52.402;4.920;2023-06-04T15:01:36;2.78;;;1.40;;
17369;SDS011;8802;52.402;4.920;2023-06-04T15:04:03;3.65;;;1.60;;
17369;SDS011;8802;52.402;4.920;2023-06-04T15:06:30;3.55;;;1.65;;